Time;durP1;ratioP1;P1;durP2;ratioP2;P2;SDS_P1;SDS_P2;PMS_P1;PMS_P2;Temp;Humidity;BMP_temperature;BMP_pressure;BME280_temperature;BME280_humidity;BME280_pressure;Samples;Min_cycle;Max_cycle;Signal;HPM_P1;HPM_P2
2023/04/18 00:01:20;;;;;;;24.90;15.30;;;;;;;9.64;92.48;101494.75;106377;1260;99302;-81
2023/04/18 00:04:07;;;;;;;27.10;15.30;;;;;;;9.61;92.99;101489.34;106520;1254;98649;-82
2023/04/18 00:06:53;;;;;;;30.70;16.10;;;;;;;9.58;93.51;101490.46;106519;1257;96598;-83
2023/04/18 00:09:38;;;;;;;26.70;15.90;;;;;;;9.54;93.51;101488.10;106497;1258;97128;-80
2023/04/18 00:12:24;;;;;;;32.40;16.90;;;;;;;9.48;93.91;101490.32;106335;1258;100062;-83
2023/04/18 00:15:11;;;;;;;26.90;16.50;;;;;;;9.44;94.19;101492.42;106521;1257;99069;-79
2023/04/18 00:17:56;;;;;;;27.20;15.70;;;;;;;9.40;94.65;101488.78;106267;1257;97809;-81
2023/04/18 00:20:42;;;;;;;29.60;17.70;;;;;;;9.35;94.89;101491.09;105764;1260;96527;-80
2023/04/18 00:23:29;;;;;;;32.10;18.00;;;;;;;9.30;95.22;101492.73;105818;1262;96515;-83
2023/04/18 00:26:14;;;;;;;28.40;16.30;;;;;;;9.24;95.87;101489.89;106132;1256;100008;-79
2023/04/18 00:29:02;;;;;;;28.20;18.10;;;;;;;9.19;95.88;101487.80;106208;1257;100321;-81
2023/04/18 00:31:48;;;;;;;30.00;18.00;;;;;;;9.14;96.35;101491.12;105906;1260;99619;-83
2023/04/18 00:34:33;;;;;;;27.80;17.00;;;;;;;9.10;96.87;101494.25;106369;1258;96610;-83
2023/04/18 00:37:19;;;;;;;28.80;16.80;;;;;;;9.07;97.23;101495.27;106314;1260;97171;-83
2023/04/18 00:40:05;;;;;;;31.40;18.00;;;;;;;9.04;97.43;101496.45;106628;1257;101229;-83
2023/04/18 00:42:51;;;;;;;32.30;17.80;;;;;;;9.02;97.74;101495.73;106474;1257;99093;-83
2023/04/18 00:45:36;;;;;;;30.40;17.30;;;;;;;8.98;98.11;101496.17;106312;1258;98949;-81
2023/04/18 00:48:22;;;;;;;29.10;17.50;;;;;;;8.94;98.36;101499.08;106257;1260;96405;-83
2023/04/18 00:51:10;;;;;;;29.90;18.30;;;;;;;8.94;98.77;101499.67;106343;1258;96957;-79
2023/04/18 00:53:56;;;;;;;30.60;17.20;;;;;;;8.93;98.73;101496.86;106484;1257;101248;-82
2023/04/18 00:56:41;;;;;;;29.50;17.60;;;;;;;8.91;98.97;101497.30;106343;1256;99234;-82
2023/04/18 00:59:27;;;;;;;30.50;18.10;;;;;;;8.88;99.33;101501.64;106527;1257;97754;-81
2023/04/18 01:02:12;;;;;;;30.00;18.20;;;;;;;8.84;99.12;101496.14;106432;1264;96582;-83
2023/04/18 01:04:59;;;;;;;25.20;17.40;;;;;;;8.79;99.53;101494.52;106084;1260;97027;-80
2023/04/18 01:07:44;;;;;;;29.30;18.30;;;;;;;8.78;99.84;101497.20;106248;1261;100086;-84
2023/04/18 01:10:30;;;;;;;31.30;18.40;;;;;;;8.78;99.96;101500.60;106341;1260;99073;-84
2023/04/18 01:13:17;;;;;;;32.40;18.40;;;;;;;8.78;99.99;101505.38;106294;1257;98968;-84
2023/04/18 01:16:03;;;;;;;29.60;17.90;;;;;;;8.78;100.00;101506.44;106413;1260;96532;-83
2023/04/18 01:18:49;;;;;;;29.80;17.70;;;;;;;8.75;100.00;101498.13;106320;1256;97091;-82
2023/04/18 01:21:35;;;;;;;27.60;15.60;;;;;;;8.75;100.00;101502.34;106157;1257;101239;-80
2023/04/18 01:24:24;;;;;;;29.80;17.90;;;;;;;8.74;100.00;101501.73;106455;1258;99108;-79
2023/04/18 01:27:12;;;;;;;27.20;17.50;;;;;;;8.71;100.00;101499.67;106387;1257;97689;-81
2023/04/18 01:29:57;;;;;;;27.80;16.60;;;;;;;8.68;100.00;101496.03;106337;1257;96555;-81
2023/04/18 01:32:43;;;;;;;25.00;16.00;;;;;;;8.67;100.00;101495.25;106407;1256;98177;-83
2023/04/18 01:35:29;;;;;;;30.20;16.70;;;;;;;8.64;100.00;101495.73;106456;1269;101240;-81
2023/04/18 01:38:15;;;;;;;31.70;17.00;;;;;;;8.61;100.00;101495.70;106462;1257;99089;-81
2023/04/18 01:41:01;;;;;;;28.10;17.50;;;;;;;8.58;100.00;101497.77;106263;1255;98455;-81
2023/04/18 01:43:47;;;;;;;28.50;16.50;;;;;;;8.58;100.00;101499.07;106349;1259;96529;-83
2023/04/18 01:46:33;;;;;;;29.20;17.60;;;;;;;8.57;100.00;101497.66;106131;1256;97106;-79
2023/04/18 01:49:19;;;;;;;30.30;18.70;;;;;;;8.57;100.00;101497.50;106470;1256;100023;-83
2023/04/18 01:52:08;;;;;;;27.30;17.20;;;;;;;8.58;100.00;101496.51;106589;1256;99458;-82
2023/04/18 01:54:53;;;;;;;28.50;17.00;;;;;;;8.60;100.00;101494.25;106361;1258;98503;-81
2023/04/18 01:57:38;;;;;;;30.50;18.20;;;;;;;8.58;100.00;101495.48;106413;1256;97461;-82
2023/04/18 02:00:25;;;;;;;28.80;18.30;;;;;;;8.57;100.00;101489.72;106236;1256;97193;-79
2023/04/18 02:03:10;;;;;;;31.50;18.10;;;;;;;8.59;100.00;101491.66;106568;1255;99964;-81
2023/04/18 02:05:56;;;;;;;31.80;18.80;;;;;;;8.59;100.00;101492.87;106466;1256;100498;-80
2023/04/18 02:08:41;;;;;;;28.70;17.20;;;;;;;8.59;100.00;101488.97;106398;1256;98496;-81
2023/04/18 02:11:27;;;;;;;32.20;18.50;;;;;;;8.59;100.00;101488.93;106167;1257;96207;-79
2023/04/18 02:14:12;;;;;;;31.70;17.40;;;;;;;8.60;100.00;101488.34;106291;1257;96613;-80
2023/04/18 02:16:58;;;;;;;30.50;16.80;;;;;;;8.61;100.00;101487.02;106372;1256;100702;-81
2023/04/18 02:19:44;;;;;;;29.00;17.90;;;;;;;8.58;100.00;101482.45;106304;1260;99747;-81
2023/04/18 02:22:30;;;;;;;34.50;18.50;;;;;;;8.55;100.00;101483.45;106436;1256;97700;-80
2023/04/18 02:25:15;;;;;;;31.30;20.30;;;;;;;8.54;100.00;101483.73;106210;1260;96712;-81
2023/04/18 02:28:01;;;;;;;32.40;18.50;;;;;;;8.53;100.00;101483.80;106182;1260;96879;-79
2023/04/18 02:30:50;;;;;;;31.40;19.30;;;;;;;8.50;100.00;101485.68;105852;1257;101244;-80
2023/04/18 02:33:35;;;;;;;29.30;18.40;;;;;;;8.49;100.00;101482.98;106191;1260;100514;-79
2023/04/18 02:36:21;;;;;;;28.80;18.70;;;;;;;8.48;100.00;101480.92;106205;1255;98501;-81
2023/04/18 02:39:06;;;;;;;30.30;18.70;;;;;;;8.50;100.00;101482.33;106408;1257;97347;-80
2023/04/18 02:41:51;;;;;;;29.20;17.40;;;;;;;8.49;100.00;101485.27;106394;1257;96493;-79
2023/04/18 02:44:37;;;;;;;32.80;20.10;;;;;;;8.49;100.00;101485.52;106307;1256;99986;-80
2023/04/18 02:47:22;;;;;;;37.00;20.00;;;;;;;8.48;100.00;101484.73;106552;1256;99059;-80
2023/04/18 02:50:08;;;;;;;30.30;19.90;;;;;;;8.46;100.00;101480.21;106225;1256;98391;-80
2023/04/18 02:52:55;;;;;;;33.90;18.80;;;;;;;8.46;100.00;101478.46;106232;1258;97970;-79
2023/04/18 02:55:42;;;;;;;30.90;18.20;;;;;;;8.45;100.00;101480.89;106378;1256;96502;-83
2023/04/18 02:58:28;;;;;;;30.50;18.70;;;;;;;8.45;100.00;101480.38;106487;1255;101248;-82
2023/04/18 03:01:32;;;;;;;31.10;19.00;;;;;;;8.44;100.00;101484.17;106168;1257;99787;-81
2023/04/18 03:04:27;;;;;;;30.90;18.90;;;;;;;8.43;100.00;101484.67;106320;1259;97716;-82
2023/04/18 03:07:19;;;;;;;29.70;17.80;;;;;;;8.43;100.00;101488.62;106222;1260;96617;-80
2023/04/18 03:10:07;;;;;;;35.10;18.40;;;;;;;8.42;100.00;101490.77;106462;1256;96529;-79
2023/04/18 03:12:53;;;;;;;30.50;16.70;;;;;;;8.43;100.00;101490.85;105660;1261;101087;-80
2023/04/18 03:15:39;;;;;;;33.90;19.50;;;;;;;8.43;100.00;101489.42;105807;1258;99120;-83
2023/04/18 03:18:25;;;;;;;30.30;16.60;;;;;;;8.42;100.00;101486.91;106384;1256;97822;-81
2023/04/18 03:21:11;;;;;;;32.20;18.90;;;;;;;8.42;100.00;101485.50;106301;1258;96521;-79
2023/04/18 03:23:57;;;;;;;30.30;18.80;;;;;;;8.41;100.00;101482.35;106224;1256;98206;-80
2023/04/18 03:26:44;;;;;;;31.70;19.00;;;;;;;8.41;100.00;101485.39;106282;1256;100558;-81
2023/04/18 03:29:31;;;;;;;32.10;17.80;;;;;;;8.40;100.00;101484.07;106377;1256;99061;-79
2023/04/18 03:32:17;;;;;;;30.00;18.30;;;;;;;8.39;100.00;101483.46;105864;1260;97796;-80
2023/04/18 03:35:03;;;;;;;31.20;20.10;;;;;;;8.39;100.00;101484.73;106651;1256;96783;-83
2023/04/18 03:37:49;;;;;;;32.80;20.50;;;;;;;8.37;100.00;101486.65;106610;1258;96582;-83
2023/04/18 03:40:43;;;;;;;29.50;19.30;;;;;;;8.38;100.00;101481.45;106631;1256;100534;-80
2023/04/18 03:43:34;;;;;;;29.80;18.90;;;;;;;8.39;100.00;101487.56;105776;1255;99071;-79
2023/04/18 03:46:20;;;;;;;29.60;18.30;;;;;;;8.39;100.00;101493.10;105817;1258;97778;-80
2023/04/18 03:49:09;;;;;;;33.20;18.70;;;;;;;8.39;100.00;101491.44;105836;1256;97036;-80
2023/04/18 03:51:56;;;;;;;29.60;18.50;;;;;;;8.39;100.00;101494.48;105812;1257;97062;-83
2023/04/18 03:54:43;;;;;;;31.00;18.40;;;;;;;8.40;100.00;101494.01;106484;1256;100459;-80
2023/04/18 03:57:30;;;;;;;31.30;18.60;;;;;;;8.41;100.00;101494.15;106241;1256;99076;-79
2023/04/18 04:00:16;;;;;;;30.70;19.10;;;;;;;8.42;100.00;101495.81;105915;1256;98048;-81
2023/04/18 04:03:02;;;;;;;35.10;19.40;;;;;;;8.43;100.00;101501.58;105965;1256;96673;-80
2023/04/18 04:05:47;;;;;;;31.40;19.00;;;;;;;8.44;100.00;101505.34;106397;1259;95838;-81
2023/04/18 04:08:35;;;;;;;29.80;18.10;;;;;;;8.45;100.00;101503.02;106492;1255;100996;-83
2023/04/18 04:11:22;;;;;;;27.70;17.10;;;;;;;8.45;100.00;101501.92;106565;1256;99902;-80
2023/04/18 04:14:07;;;;;;;28.10;18.40;;;;;;;8.45;100.00;101504.38;106438;1256;97743;-80
2023/04/18 04:16:57;;;;;;;27.40;17.50;;;;;;;8.46;100.00;101507.16;106335;1256;96610;-81
2023/04/18 04:19:43;;;;;;;25.70;17.70;;;;;;;8.48;100.00;101509.91;106356;1260;97108;-83
2023/04/18 04:22:33;;;;;;;28.00;17.70;;;;;;;8.51;100.00;101516.77;106391;1260;99999;-80
2023/04/18 04:25:19;;;;;;;33.70;18.00;;;;;;;8.52;100.00;101515.10;106378;1256;100355;-81
2023/04/18 04:28:05;;;;;;;26.80;17.80;;;;;;;8.54;100.00;101514.89;106538;1256;97707;-80
2023/04/18 04:30:54;;;;;;;27.20;16.70;;;;;;;8.55;100.00;101515.66;107385;1256;95910;-80
2023/04/18 04:33:41;;;;;;;32.40;18.10;;;;;;;8.55;100.00;101515.47;106062;1256;97230;-81
2023/04/18 04:36:33;;;;;;;27.70;18.30;;;;;;;8.56;100.00;101518.07;106461;1260;99990;-81
2023/04/18 04:39:20;;;;;;;25.80;16.40;;;;;;;8.57;100.00;101519.45;106492;1256;99253;-81
2023/04/18 04:42:14;;;;;;;25.90;17.30;;;;;;;8.58;100.00;101522.73;106456;1259;97716;-81
2023/04/18 04:45:11;;;;;;;31.00;17.90;;;;;;;8.58;100.00;101521.08;106460;1260;97222;-81
2023/04/18 04:47:57;;;;;;;30.00;17.80;;;;;;;8.59;100.00;101524.25;106320;1256;96511;-80
2023/04/18 04:50:53;;;;;;;27.90;16.80;;;;;;;8.60;100.00;101524.27;106591;1256;99987;-82
2023/04/18 04:53:39;;;;;;;28.70;16.50;;;;;;;8.62;100.00;101526.98;106621;1258;99066;-80
2023/04/18 04:56:26;;;;;;;29.80;18.60;;;;;;;8.63;100.00;101524.86;106459;1257;97764;-83
2023/04/18 04:59:11;;;;;;;26.80;17.30;;;;;;;8.64;100.00;101528.15;106474;1260;96565;-83
2023/04/18 05:02:00;;;;;;;28.50;17.90;;;;;;;8.63;100.00;101525.73;106420;1256;97149;-82
2023/04/18 05:04:45;;;;;;;30.20;18.70;;;;;;;8.64;100.00;101526.39;106195;1256;99998;-80
2023/04/18 05:07:31;;;;;;;28.60;17.30;;;;;;;8.65;100.00;101527.29;106248;1260;101377;-81
2023/04/18 05:10:16;;;;;;;26.80;17.40;;;;;;;8.67;100.00;101528.94;106381;1256;98934;-82
2023/04/18 05:13:03;;;;;;;27.00;17.20;;;;;;;8.68;100.00;101527.45;106312;1256;96484;-81
2023/04/18 05:15:48;;;;;;;29.50;18.60;;;;;;;8.70;100.00;101528.83;106266;1256;97768;-81
2023/04/18 05:18:37;;;;;;;27.60;17.90;;;;;;;8.71;100.00;101529.08;105853;1256;100670;-83
2023/04/18 05:21:24;;;;;;;27.20;17.40;;;;;;;8.73;100.00;101529.60;106302;1259;101090;-80
2023/04/18 05:24:10;;;;;;;27.20;15.90;;;;;;;8.74;100.00;101529.06;106413;1256;98656;-81
2023/04/18 05:26:56;;;;;;;25.50;15.90;;;;;;;8.78;100.00;101528.04;106290;1254;96793;-80
2023/04/18 05:29:41;;;;;;;26.60;17.30;;;;;;;8.80;100.00;101531.38;106399;1256;97728;-79
2023/04/18 05:32:27;;;;;;;28.10;16.90;;;;;;;8.82;100.00;101533.66;106398;1255;100049;-83
2023/04/18 05:35:13;;;;;;;26.30;16.90;;;;;;;8.83;100.00;101531.86;106451;1260;99106;-80
2023/04/18 05:37:59;;;;;;;24.10;15.80;;;;;;;8.86;100.00;101532.20;106370;1256;97693;-83
2023/04/18 05:40:44;;;;;;;26.20;17.10;;;;;;;8.89;100.00;101532.53;106510;1256;96803;-80
2023/04/18 05:43:30;;;;;;;26.30;16.40;;;;;;;8.94;100.00;101533.16;106514;1256;97471;-82
2023/04/18 05:46:15;;;;;;;26.80;17.60;;;;;;;8.97;100.00;101532.84;106422;1260;100036;-82
2023/04/18 05:49:02;;;;;;;30.20;18.50;;;;;;;9.01;100.00;101537.92;106438;1256;99081;-82
2023/04/18 05:51:48;;;;;;;26.30;17.00;;;;;;;9.05;100.00;101536.08;106372;1256;97691;-80
2023/04/18 05:54:33;;;;;;;29.20;17.80;;;;;;;9.08;100.00;101536.88;106510;1259;96600;-83
2023/04/18 05:57:19;;;;;;;27.30;17.10;;;;;;;9.10;100.00;101537.50;106353;1256;97208;-84
2023/04/18 06:00:10;;;;;;;26.00;16.60;;;;;;;9.14;100.00;101533.91;106403;1256;99994;-84
2023/04/18 06:02:58;;;;;;;27.90;17.00;;;;;;;9.17;100.00;101532.39;106487;1255;100710;-83
2023/04/18 06:05:44;;;;;;;26.00;17.00;;;;;;;9.17;100.00;101536.42;106697;1258;99125;-84
2023/04/18 06:08:29;;;;;;;28.40;17.20;;;;;;;9.18;100.00;101536.91;106435;1257;96978;-78
2023/04/18 06:11:15;;;;;;;25.60;17.00;;;;;;;9.20;100.00;101537.93;106431;1256;97049;-81
2023/04/18 06:14:01;;;;;;;26.60;16.90;;;;;;;9.23;100.00;101539.63;106346;1255;101472;-80
2023/04/18 06:16:47;;;;;;;27.10;16.40;;;;;;;9.26;100.00;101539.82;106516;1256;99077;-81
2023/04/18 06:19:32;;;;;;;27.20;17.00;;;;;;;9.30;100.00;101540.48;106351;1258;99124;-80
2023/04/18 06:22:18;;;;;;;27.90;17.90;;;;;;;9.33;100.00;101540.11;106366;1256;97835;-79
2023/04/18 06:25:04;;;;;;;26.60;17.30;;;;;;;9.39;100.00;101539.58;106344;1256;97509;-81
2023/04/18 06:27:50;;;;;;;27.40;17.60;;;;;;;9.45;99.99;101539.16;106222;1256;100020;-80
2023/04/18 06:30:35;;;;;;;26.40;16.50;;;;;;;9.51;99.99;101537.94;105882;1261;99777;-80
2023/04/18 06:33:21;;;;;;;26.50;16.90;;;;;;;9.59;100.00;101540.13;106260;1261;97728;-81
2023/04/18 06:36:07;;;;;;;27.60;18.00;;;;;;;9.69;100.00;101541.65;106215;1258;97490;-79
2023/04/18 06:38:53;;;;;;;26.50;16.90;;;;;;;9.77;99.95;101545.42;106328;1255;96518;-82
2023/04/18 06:41:38;;;;;;;23.50;16.20;;;;;;;9.86;100.00;101547.98;106446;1255;100136;-82
2023/04/18 06:44:26;;;;;;;29.00;17.90;;;;;;;9.96;99.72;101551.59;106391;1256;99653;-81
2023/04/18 06:47:11;;;;;;;27.60;18.30;;;;;;;10.07;99.92;101548.95;106445;1256;98967;-84
2023/04/18 06:49:57;;;;;;;26.20;18.00;;;;;;;10.23;100.00;101553.84;106269;1259;96663;-83
2023/04/18 06:52:45;;;;;;;27.90;16.90;;;;;;;10.35;99.36;101556.23;106336;1256;97184;-81
2023/04/18 06:55:31;;;;;;;24.30;16.00;;;;;;;10.42;98.78;101554.35;106461;1256;101313;-80
2023/04/18 06:58:16;;;;;;;25.30;16.80;;;;;;;10.51;98.81;101552.87;105894;1259;99074;-82
2023/04/18 07:01:01;;;;;;;26.50;17.00;;;;;;;10.57;98.11;101554.59;106404;1255;97788;-81
2023/04/18 07:03:47;;;;;;;23.00;15.80;;;;;;;10.63;97.98;101554.14;106839;1260;96546;-80
2023/04/18 07:06:34;;;;;;;26.00;16.50;;;;;;;10.67;97.56;101554.55;106788;1257;96901;-82
2023/04/18 07:09:19;;;;;;;27.00;17.10;;;;;;;10.71;97.21;101556.84;106445;1256;100035;-81
2023/04/18 07:12:05;;;;;;;29.90;17.80;;;;;;;10.73;96.62;101556.38;106384;1256;99048;-81
2023/04/18 07:14:51;;;;;;;23.20;15.80;;;;;;;10.77;96.31;101557.42;106203;1261;97769;-80
2023/04/18 07:17:36;;;;;;;28.20;17.30;;;;;;;10.83;96.29;101557.97;106379;1255;95903;-80
2023/04/18 07:20:22;;;;;;;25.00;17.40;;;;;;;10.87;96.14;101558.94;106541;1257;97781;-80
2023/04/18 07:23:09;;;;;;;23.70;16.50;;;;;;;10.94;96.47;101557.65;106374;1256;100054;-81
2023/04/18 07:25:54;;;;;;;27.30;17.50;;;;;;;11.04;96.56;101558.00;106354;1260;100132;-81
2023/04/18 07:28:40;;;;;;;22.70;16.30;;;;;;;11.11;96.23;101560.52;106387;1256;97719;-80
2023/04/18 07:31:27;;;;;;;26.80;17.90;;;;;;;11.19;95.99;101561.59;106321;1255;97129;-81
2023/04/18 07:34:13;;;;;;;25.50;16.90;;;;;;;11.24;95.44;101559.17;106294;1260;96535;-81
2023/04/18 07:36:58;;;;;;;23.20;15.00;;;;;;;11.29;95.20;101558.70;106210;1260;101586;-82
2023/04/18 07:39:43;;;;;;;22.60;14.90;;;;;;;11.34;95.29;101556.32;106312;1258;99226;-80
2023/04/18 07:42:29;;;;;;;23.70;16.10;;;;;;;11.40;94.95;101561.38;106298;1255;97762;-80
2023/04/18 07:45:14;;;;;;;22.70;16.20;;;;;;;11.39;93.81;101560.21;106271;1259;96614;-82
2023/04/18 07:48:01;;;;;;;21.30;15.60;;;;;;;11.37;93.65;101558.16;106258;1258;98175;-81
2023/04/18 07:50:48;;;;;;;24.00;15.80;;;;;;;11.38;93.78;101558.59;106358;1260;99982;-80
2023/04/18 07:53:33;;;;;;;22.30;15.90;;;;;;;11.42;93.80;101560.21;106285;1258;100299;-79
2023/04/18 07:56:18;;;;;;;22.70;16.30;;;;;;;11.44;93.78;101557.65;106141;1256;99042;-81
2023/04/18 07:59:04;;;;;;;24.00;16.00;;;;;;;11.47;93.95;101560.16;106343;1255;98015;-81
2023/04/18 08:01:49;;;;;;;27.90;17.80;;;;;;;11.53;93.95;101560.77;106280;1256;97799;-81
2023/04/18 08:04:35;;;;;;;28.90;17.60;;;;;;;11.60;93.44;101563.42;106311;1256;101252;-81
2023/04/18 08:07:20;;;;;;;25.50;16.20;;;;;;;11.62;93.10;101562.77;106272;1256;99135;-80
2023/04/18 08:10:06;;;;;;;27.30;16.50;;;;;;;11.67;92.94;101560.87;106359;1256;97980;-79
2023/04/18 08:12:52;;;;;;;24.00;15.70;;;;;;;11.76;92.89;101560.80;106442;1260;97861;-84
2023/04/18 08:15:39;;;;;;;24.30;16.20;;;;;;;11.83;92.79;101558.33;106378;1256;98568;-82
2023/04/18 08:18:25;;;;;;;23.10;14.60;;;;;;;11.89;92.91;101558.35;106299;1256;101329;-78
2023/04/18 08:21:10;;;;;;;21.90;16.00;;;;;;;11.96;92.62;101559.80;106124;1256;99093;-77
2023/04/18 08:23:56;;;;;;;23.80;15.80;;;;;;;11.98;92.25;101563.21;105175;1260;99228;-76
2023/04/18 08:26:41;;;;;;;23.90;15.80;;;;;;;12.04;92.50;101562.16;105463;1256;97859;-78
2023/04/18 08:29:27;;;;;;;24.80;16.40;;;;;;;12.11;92.15;101561.11;105267;1260;98486;-76
2023/04/18 08:32:13;;;;;;;21.70;15.20;;;;;;;12.13;91.68;101562.03;105376;1256;102627;-77
2023/04/18 08:34:58;;;;;;;28.30;15.80;;;;;;;12.16;91.41;101563.36;105474;1257;99962;-80
2023/04/18 08:37:44;;;;;;;23.00;16.20;;;;;;;12.23;91.57;101561.83;106285;1260;97948;-79
2023/04/18 08:40:29;;;;;;;26.20;16.70;;;;;;;12.29;91.61;101564.33;106273;1256;98004;-79
2023/04/18 08:43:15;;;;;;;25.80;16.10;;;;;;;12.37;91.28;101563.05;106288;1256;97958;-79
2023/04/18 08:46:00;;;;;;;23.00;15.50;;;;;;;12.45;91.20;101562.30;106300;1256;101493;-79
2023/04/18 08:48:48;;;;;;;23.50;15.80;;;;;;;12.50;90.71;101558.21;106454;1260;100340;-79
2023/04/18 08:51:38;;;;;;;25.30;16.30;;;;;;;12.59;91.03;101557.35;106455;1256;99157;-80
2023/04/18 08:54:24;;;;;;;22.30;15.30;;;;;;;12.67;90.53;101555.08;106435;1256;98714;-80
2023/04/18 08:57:11;;;;;;;24.60;15.50;;;;;;;12.78;90.74;101548.07;105666;1260;97955;-78
2023/04/18 08:59:59;;;;;;;21.40;14.00;;;;;;;12.98;91.71;101546.39;105328;1261;101346;-78
2023/04/18 09:02:45;;;;;;;20.30;14.40;;;;;;;13.21;90.84;101544.79;105260;1256;100348;-77
2023/04/18 09:05:31;;;;;;;20.10;14.30;;;;;;;13.40;90.25;101548.55;105303;1260;99275;-77
2023/04/18 09:08:25;;;;;;;24.20;14.60;;;;;;;13.53;89.47;101545.44;105283;1261;99221;-82
2023/04/18 09:11:28;;;;;;;25.70;16.80;;;;;;;13.62;88.97;101544.59;106604;1256;98385;-81
2023/04/18 09:14:24;;;;;;;21.40;15.70;;;;;;;13.71;88.65;101546.64;108024;1255;102177;-84
2023/04/18 09:17:13;;;;;;;24.50;15.00;;;;;;;13.78;87.35;101547.70;106099;1256;99740;-82
2023/04/18 09:20:04;;;;;;;22.20;15.00;;;;;;;13.81;86.77;101551.71;106217;1256;98028;-85
2023/04/18 09:22:51;;;;;;;20.90;15.10;;;;;;;13.71;85.18;101551.29;106784;1260;98060;-81
2023/04/18 09:25:45;;;;;;;23.60;14.90;;;;;;;13.62;85.35;101546.05;106887;1256;96215;-82
2023/04/18 09:28:32;;;;;;;20.30;14.30;;;;;;;13.63;85.91;101548.00;106287;1257;103505;-79
2023/04/18 09:31:17;;;;;;;19.40;14.30;;;;;;;13.66;85.91;101548.10;105850;1257;100358;-78
2023/04/18 09:34:04;;;;;;;23.00;15.30;;;;;;;13.70;85.33;101544.39;105861;1260;99022;-79
2023/04/18 09:37:06;;;;;;;20.00;15.50;;;;;;;13.76;85.17;101545.60;106406;1257;97956;-79
2023/04/18 09:39:52;;;;;;;25.70;15.70;;;;;;;13.84;85.50;101551.10;106051;1260;99714;-78
2023/04/18 09:42:38;;;;;;;19.30;14.60;;;;;;;13.87;84.77;101547.54;105542;1259;428097;-79
2023/04/18 09:45:24;;;;;;;22.40;14.70;;;;;;;13.87;84.70;101548.45;106199;1257;100826;-80
2023/04/18 09:48:09;;;;;;;21.90;14.80;;;;;;;13.86;84.16;101546.61;106327;1258;98058;-80
2023/04/18 09:50:57;;;;;;;21.70;15.20;;;;;;;13.84;83.96;101550.82;106547;1257;98143;-79
2023/04/18 09:53:43;;;;;;;22.40;14.80;;;;;;;13.84;83.91;101551.89;106538;1259;97869;-80
2023/04/18 09:56:33;;;;;;;21.80;15.40;;;;;;;13.79;83.37;101549.98;106225;1260;101353;-80
2023/04/18 09:59:41;;;;;;;20.40;15.80;;;;;;;13.77;83.68;101546.56;107019;1258;99277;-79
2023/04/18 10:02:33;;;;;;;20.80;14.80;;;;;;;13.90;84.64;101545.52;106143;1258;98033;-79
2023/04/18 10:05:22;;;;;;;19.80;14.80;;;;;;;14.09;84.85;101536.80;105984;1257;97940;-80
2023/04/18 10:08:09;;;;;;;25.10;15.70;;;;;;;14.22;84.25;101539.82;105857;1259;97774;-80
2023/04/18 10:10:57;;;;;;;26.20;15.50;;;;;;;14.35;83.61;101536.24;105954;1261;101619;-79
2023/04/18 10:13:47;;;;;;;22.20;15.90;;;;;;;14.50;84.09;101534.27;105702;1258;99067;-79
2023/04/18 10:16:32;;;;;;;22.30;16.00;;;;;;;14.62;83.14;101533.25;105560;1257;98001;-78
2023/04/18 10:19:23;;;;;;;19.50;14.40;;;;;;;14.61;81.83;101530.13;105561;1259;97881;-79
2023/04/18 10:22:10;;;;;;;23.30;15.30;;;;;;;14.59;81.73;101530.16;105561;1263;98054;-79
2023/04/18 10:24:56;;;;;;;19.50;14.50;;;;;;;14.58;81.29;101530.13;105999;1259;101358;-79
2023/04/18 10:27:47;;;;;;;19.70;14.50;;;;;;;14.61;81.52;101525.78;106062;1260;99034;-78
2023/04/18 10:30:39;;;;;;;19.30;14.40;;;;;;;14.70;81.97;101522.60;106034;1257;99108;-79
2023/04/18 10:33:34;;;;;;;22.70;14.60;;;;;;;14.81;81.53;101524.83;105949;1261;97939;-79
2023/04/18 10:36:20;;;;;;;21.60;15.10;;;;;;;14.80;80.35;101525.23;106474;1257;98050;-79
2023/04/18 10:39:28;;;;;;;27.40;15.80;;;;;;;14.68;79.68;101523.08;105906;1261;101345;-80
2023/04/18 10:42:14;;;;;;;21.70;15.70;;;;;;;14.66;79.82;101519.07;105985;1259;99146;-80
2023/04/18 10:45:19;;;;;;;22.80;14.20;;;;;;;14.71;80.53;101516.60;105958;1257;98037;-80
2023/04/18 10:48:28;;;;;;;21.10;15.00;;;;;;;14.82;80.19;101514.72;105954;1261;97956;-79
2023/04/18 10:51:14;;;;;;;19.30;14.50;;;;;;;14.84;79.46;101522.27;105920;1259;98419;-79
2023/04/18 10:54:01;;;;;;;19.40;14.00;;;;;;;14.85;80.17;101516.57;105945;1261;101392;-80
2023/04/18 10:56:57;;;;;;;19.20;15.00;;;;;;;14.94;80.03;101512.27;106299;1257;99188;-80
2023/04/18 10:59:48;;;;;;;21.50;14.00;;;;;;;15.04;79.95;101511.94;106265;1256;98988;-79
2023/04/18 11:02:33;;;;;;;17.80;12.90;;;;;;;15.18;80.34;101507.25;106849;1257;97964;-79
2023/04/18 11:05:21;;;;;;;17.30;13.20;;;;;;;15.33;79.49;101503.60;106407;1260;98424;-78
2023/04/18 11:08:22;;;;;;;22.50;13.50;;;;;;;15.30;78.27;101501.66;105949;1261;101379;-78
2023/04/18 11:11:10;;;;;;;18.90;13.90;;;;;;;15.21;77.68;101500.11;105843;1261;99128;-79
2023/04/18 11:13:56;;;;;;;17.80;13.80;;;;;;;15.17;77.31;101502.84;105880;1259;98851;-79
2023/04/18 11:16:41;;;;;;;18.10;13.30;;;;;;;15.14;77.17;101504.36;106051;1260;97869;-78
2023/04/18 11:19:27;;;;;;;19.50;14.20;;;;;;;15.17;76.82;101503.06;105877;1261;98583;-79
2023/04/18 11:22:14;;;;;;;19.40;12.60;;;;;;;15.21;76.81;101491.51;105968;1259;101950;-79
2023/04/18 11:25:05;;;;;;;17.00;12.60;;;;;;;15.33;77.46;101484.75;105995;1261;99103;-79
2023/04/18 11:27:51;;;;;;;17.40;12.70;;;;;;;15.44;76.44;101483.73;106041;1257;100099;-79
2023/04/18 11:30:41;;;;;;;15.20;11.90;;;;;;;15.49;75.40;101484.52;105949;1257;97972;-79
2023/04/18 11:33:28;;;;;;;18.20;12.30;;;;;;;15.44;75.40;101484.98;105709;1257;97838;-78
2023/04/18 11:36:13;;;;;;;19.10;12.70;;;;;;;15.37;75.03;101478.84;105443;1261;102127;-78
2023/04/18 11:38:59;;;;;;;15.00;11.80;;;;;;;15.28;74.84;101478.67;105644;1256;99235;-79
2023/04/18 11:41:49;;;;;;;15.70;11.10;;;;;;;15.24;74.65;101477.61;105617;1261;99059;-78
2023/04/18 11:44:38;;;;;;;16.40;12.00;;;;;;;15.34;75.91;101472.95;105424;1261;98829;-78
2023/04/18 11:47:32;;;;;;;16.60;12.20;;;;;;;15.51;76.02;101471.48;106438;1259;99177;-79
2023/04/18 11:50:17;;;;;;;15.70;11.90;;;;;;;15.56;74.36;101467.11;106053;1259;102619;-79
2023/04/18 11:53:03;;;;;;;14.30;10.70;;;;;;;15.52;73.69;101468.16;105793;1259;100449;-79
2023/04/18 11:55:54;;;;;;;14.20;10.30;;;;;;;15.47;72.97;101467.23;105849;1257;99655;-79
2023/04/18 11:58:41;;;;;;;13.40;10.90;;;;;;;15.45;73.11;101463.67;106015;1257;97932;-78
2023/04/18 12:01:27;;;;;;;14.80;11.00;;;;;;;15.49;73.17;101463.84;105718;1257;98435;-78
2023/04/18 12:04:13;;;;;;;15.40;10.40;;;;;;;15.57;73.01;101463.92;105714;1258;102650;-79
2023/04/18 12:06:58;;;;;;;12.70;10.10;;;;;;;15.59;72.33;101460.23;105860;1261;99073;-79
2023/04/18 12:09:44;;;;;;;14.00;10.20;;;;;;;15.60;71.85;101457.27;105521;1261;99243;-77
2023/04/18 12:12:30;;;;;;;20.00;9.90;;;;;;;15.57;71.48;101460.68;105479;1258;98046;-77
2023/04/18 12:15:16;;;;;;;14.70;10.10;;;;;;;15.52;71.11;101457.30;105394;1261;98490;-78
2023/04/18 12:18:04;;;;;;;11.70;8.90;;;;;;;15.48;71.12;101457.56;106139;1261;101354;-78
2023/04/18 12:20:52;;;;;;;13.10;9.40;;;;;;;15.43;70.77;101462.12;105215;1262;100383;-77
2023/04/18 12:23:40;;;;;;;15.20;10.50;;;;;;;15.32;70.82;101457.19;105503;1261;99217;-78
2023/04/18 12:26:26;;;;;;;11.80;9.20;;;;;;;15.21;70.77;101456.91;105496;1257;97986;-78
2023/04/18 12:29:11;;;;;;;14.70;9.50;;;;;;;15.11;70.78;101453.55;105513;1261;97847;-80
2023/04/18 12:31:57;;;;;;;14.70;10.40;;;;;;;15.05;70.80;101451.17;106565;1259;102625;-83